Time;durP1;ratioP1;P1;durP2;ratioP2;P2;SDS_P1;SDS_P2;PMS_P1;PMS_P2;Temp;Humidity;BMP_temperature;BMP_pressure;BME280_temperature;BME280_humidity;BME280_pressure;Samples;Min_cycle;Max_cycle;Signal;HPM_P1;HPM_P2
2023/05/27 00:00:56;;;;;;;21.17;5.00;;;;;;;;;;5030864;28;20472;-80
2023/05/27 00:03:23;;;;;;;12.83;5.73;;;;;;;;;;5012883;28;20530;-80
2023/05/27 00:05:49;;;;;;;13.90;5.50;;;;;;;;;;5010107;28;20462;-79
2023/05/27 00:08:16;;;;;;;16.10;5.17;;;;;;;;;;5030239;28;20480;-79
2023/05/27 00:10:43;;;;;;;9.63;4.63;;;;;;;;;;5033035;28;20436;-79
2023/05/27 00:13:10;;;;;;;19.10;5.00;;;;;;;;;;5028901;28;20476;-80
2023/05/27 00:15:38;;;;;;;9.97;3.97;;;;;;;;;;5030326;28;20551;-80
2023/05/27 00:18:06;;;;;;;13.73;5.17;;;;;;;;;;5029693;28;20477;-80
2023/05/27 00:20:33;;;;;;;11.13;4.87;;;;;;;;;;5034437;28;20996;-79
2023/05/27 00:23:00;;;;;;;11.80;5.17;;;;;;;;;;5033132;28;20475;-80
2023/05/27 00:25:26;;;;;;;19.40;5.93;;;;;;;;;;5025331;28;20449;-80
2023/05/27 00:27:52;;;;;;;21.37;6.80;;;;;;;;;;5013314;28;20489;-79
2023/05/27 00:30:19;;;;;;;18.03;5.87;;;;;;;;;;5023442;28;20456;-79
2023/05/27 00:32:45;;;;;;;15.77;6.73;;;;;;;;;;5026691;28;21003;-79
2023/05/27 00:35:13;;;;;;;12.60;4.77;;;;;;;;;;5027219;28;20456;-79
2023/05/27 00:37:39;;;;;;;18.40;6.50;;;;;;;;;;5022618;28;20470;-80
2023/05/27 00:40:09;;;;;;;15.53;5.83;;;;;;;;;;5031414;28;20444;-80
2023/05/27 00:42:35;;;;;;;17.07;6.57;;;;;;;;;;5030802;28;20472;-80
2023/05/27 00:45:01;;;;;;;11.53;4.80;;;;;;;;;;5035695;28;20448;-80
2023/05/27 00:47:30;;;;;;;9.43;4.57;;;;;;;;;;5033288;28;20560;-79
2023/05/27 00:49:56;;;;;;;11.80;4.80;;;;;;;;;;5026770;28;20452;-80
2023/05/27 00:52:24;;;;;;;10.23;5.37;;;;;;;;;;5034666;28;20492;-79
2023/05/27 00:54:51;;;;;;;14.93;5.50;;;;;;;;;;5023714;28;20456;-80
2023/05/27 00:57:18;;;;;;;18.10;6.00;;;;;;;;;;5031437;28;20503;-79
2023/05/27 00:59:45;;;;;;;15.03;5.37;;;;;;;;;;5035041;28;20456;-80
2023/05/27 01:02:11;;;;;;;11.03;5.50;;;;;;;;;;5032832;28;20481;-79
2023/05/27 01:04:38;;;;;;;13.50;4.97;;;;;;;;;;5031121;28;20985;-79
2023/05/27 01:07:09;;;;;;;12.30;5.87;;;;;;;;;;5027077;28;20480;-79
2023/05/27 01:09:40;;;;;;;15.47;4.90;;;;;;;;;;5034408;28;20465;-79
2023/05/27 01:12:09;;;;;;;12.33;4.67;;;;;;;;;;5015047;28;20487;-80
2023/05/27 01:14:37;;;;;;;16.93;6.60;;;;;;;;;;5020399;28;20453;-79
2023/05/27 01:17:06;;;;;;;12.00;5.90;;;;;;;;;;5022900;28;20472;-80
2023/05/27 01:19:34;;;;;;;17.00;6.07;;;;;;;;;;5032756;28;20449;-79
2023/05/27 01:22:01;;;;;;;15.63;6.27;;;;;;;;;;5031679;28;20477;-80
2023/05/27 01:24:29;;;;;;;14.93;5.03;;;;;;;;;;5012973;28;20461;-80
2023/05/27 01:26:56;;;;;;;18.10;5.77;;;;;;;;;;5032621;28;20532;-80
2023/05/27 01:29:22;;;;;;;21.87;6.03;;;;;;;;;;5032959;28;20867;-79
2023/05/27 01:31:52;;;;;;;20.30;5.87;;;;;;;;;;5029743;28;20476;-79
2023/05/27 01:34:20;;;;;;;16.67;5.90;;;;;;;;;;5034069;28;20448;-79
2023/05/27 01:36:48;;;;;;;20.27;4.80;;;;;;;;;;5031238;28;20488;-80
2023/05/27 01:39:15;;;;;;;16.10;5.43;;;;;;;;;;5013396;28;20492;-80
2023/05/27 01:41:43;;;;;;;12.53;5.63;;;;;;;;;;5037379;28;20889;-79
2023/05/27 01:44:10;;;;;;;17.50;4.77;;;;;;;;;;5036011;28;20831;-79
2023/05/27 01:46:37;;;;;;;11.83;5.30;;;;;;;;;;5034143;28;20989;-79
2023/05/27 01:49:03;;;;;;;15.73;5.77;;;;;;;;;;5029725;28;20973;-80
2023/05/27 01:51:30;;;;;;;14.80;4.20;;;;;;;;;;5015313;28;20487;-79
2023/05/27 01:53:56;;;;;;;12.63;4.60;;;;;;;;;;5034006;28;20456;-80
2023/05/27 01:56:23;;;;;;;13.53;6.47;;;;;;;;;;5034152;28;20485;-79
2023/05/27 01:58:51;;;;;;;12.63;5.00;;;;;;;;;;5029872;28;20547;-80
2023/05/27 02:01:17;;;;;;;17.03;4.40;;;;;;;;;;5029600;28;20456;-80
2023/05/27 02:03:43;;;;;;;12.93;4.97;;;;;;;;;;5028587;28;20453;-79
2023/05/27 02:06:10;;;;;;;15.60;5.10;;;;;;;;;;5028888;28;20458;-79
2023/05/27 02:08:36;;;;;;;16.20;4.67;;;;;;;;;;5029389;28;20484;-79
2023/05/27 02:11:03;;;;;;;18.07;4.43;;;;;;;;;;5024481;28;20833;-79
2023/05/27 02:13:29;;;;;;;14.53;4.73;;;;;;;;;;5033254;28;20853;-79
2023/05/27 02:15:57;;;;;;;14.03;5.90;;;;;;;;;;5033590;28;20837;-79
2023/05/27 02:18:25;;;;;;;12.50;4.73;;;;;;;;;;5021772;28;20872;-80
2023/05/27 02:20:51;;;;;;;17.33;6.70;;;;;;;;;;5027134;28;20532;-80
2023/05/27 02:23:18;;;;;;;16.93;5.47;;;;;;;;;;5010713;28;20470;-79
2023/05/27 02:25:44;;;;;;;17.63;5.07;;;;;;;;;;5036468;28;20971;-80
2023/05/27 02:28:10;;;;;;;16.50;4.57;;;;;;;;;;5032708;28;20504;-79
2023/05/27 02:30:37;;;;;;;13.07;4.50;;;;;;;;;;5034143;28;20453;-80
2023/05/27 02:33:05;;;;;;;9.40;4.33;;;;;;;;;;5030949;28;20473;-79
2023/05/27 02:35:31;;;;;;;13.90;5.10;;;;;;;;;;5027063;28;20456;-80
2023/05/27 02:37:57;;;;;;;9.33;3.80;;;;;;;;;;5014950;28;20484;-80
2023/05/27 02:40:24;;;;;;;11.50;5.03;;;;;;;;;;5031347;28;20456;-80
2023/05/27 02:42:51;;;;;;;9.83;4.20;;;;;;;;;;5033252;28;20997;-81
2023/05/27 02:45:18;;;;;;;10.60;4.83;;;;;;;;;;5031842;28;20476;-80
2023/05/27 02:47:44;;;;;;;10.97;4.17;;;;;;;;;;5032857;28;20472;-80
2023/05/27 02:50:12;;;;;;;17.10;5.60;;;;;;;;;;5033443;28;20456;-78
2023/05/27 02:52:38;;;;;;;18.00;5.13;;;;;;;;;;5033221;28;21004;-80
2023/05/27 02:55:05;;;;;;;21.50;4.60;;;;;;;;;;5012780;28;20445;-80
2023/05/27 02:57:33;;;;;;;22.90;6.23;;;;;;;;;;5032271;28;20480;-80
2023/05/27 03:00:00;;;;;;;16.53;6.80;;;;;;;;;;5018796;28;20446;-80
2023/05/27 03:02:26;;;;;;;17.90;6.90;;;;;;;;;;5028078;28;20493;-80
2023/05/27 03:04:55;;;;;;;18.93;5.30;;;;;;;;;;5022899;28;20453;-80
2023/05/27 03:07:23;;;;;;;16.00;5.20;;;;;;;;;;5036703;28;20556;-80
2023/05/27 03:09:49;;;;;;;15.13;5.70;;;;;;;;;;5033037;28;20540;-80
2023/05/27 03:12:16;;;;;;;16.50;6.20;;;;;;;;;;5032531;28;20473;-80
2023/05/27 03:14:42;;;;;;;15.43;5.90;;;;;;;;;;5026886;28;20986;-80
2023/05/27 03:17:09;;;;;;;24.50;6.90;;;;;;;;;;5021708;28;20481;-80
2023/05/27 03:19:35;;;;;;;29.20;6.97;;;;;;;;;;5022111;28;20460;-78
2023/05/27 03:22:02;;;;;;;16.90;6.20;;;;;;;;;;5030829;28;20468;-78
2023/05/27 03:24:30;;;;;;;18.80;6.73;;;;;;;;;;5029949;28;20445;-79
2023/05/27 03:26:56;;;;;;;13.93;5.00;;;;;;;;;;5025723;28;20528;-80
2023/05/27 03:29:22;;;;;;;14.33;5.13;;;;;;;;;;5027316;28;20526;-78
2023/05/27 03:31:49;;;;;;;12.00;4.33;;;;;;;;;;5026632;28;20480;-80
2023/05/27 03:34:15;;;;;;;11.30;5.10;;;;;;;;;;5025317;28;20829;-80
2023/05/27 03:36:43;;;;;;;14.80;5.90;;;;;;;;;;5025274;28;20472;-80
2023/05/27 03:39:09;;;;;;;9.73;4.50;;;;;;;;;;5023484;28;20440;-79
2023/05/27 03:41:37;;;;;;;13.90;4.43;;;;;;;;;;5031346;28;20468;-78
2023/05/27 03:44:04;;;;;;;16.00;5.40;;;;;;;;;;5030987;28;20449;-80
2023/05/27 03:46:32;;;;;;;13.77;4.97;;;;;;;;;;5026799;28;20473;-80
2023/05/27 03:48:58;;;;;;;10.27;5.20;;;;;;;;;;5033744;28;20464;-80
2023/05/27 03:51:25;;;;;;;6.50;4.67;;;;;;;;;;5025850;28;20449;-80
2023/05/27 03:53:51;;;;;;;11.50;5.10;;;;;;;;;;5030161;28;20453;-78
2023/05/27 03:56:17;;;;;;;15.57;6.33;;;;;;;;;;5032020;28;20448;-78
2023/05/27 03:58:45;;;;;;;11.53;5.60;;;;;;;;;;5031819;28;20858;-80
2023/05/27 04:01:13;;;;;;;10.10;4.77;;;;;;;;;;5027201;28;20449;-78
2023/05/27 04:03:40;;;;;;;14.27;5.03;;;;;;;;;;5030917;28;20973;-79
2023/05/27 04:06:07;;;;;;;12.37;5.60;;;;;;;;;;5031275;28;21011;-78
2023/05/27 04:08:35;;;;;;;12.27;5.23;;;;;;;;;;5027203;28;20494;-78
2023/05/27 04:11:03;;;;;;;15.90;6.63;;;;;;;;;;5029642;28;20471;-78
2023/05/27 04:13:29;;;;;;;18.97;6.20;;;;;;;;;;5031078;28;20532;-78
2023/05/27 04:15:59;;;;;;;8.23;4.60;;;;;;;;;;5023614;28;20446;-78
2023/05/27 04:18:25;;;;;;;13.80;5.27;;;;;;;;;;5025184;28;20911;-78
2023/05/27 04:20:52;;;;;;;17.13;5.13;;;;;;;;;;5026654;28;20444;-78
2023/05/27 04:23:18;;;;;;;11.33;5.97;;;;;;;;;;5031623;28;20473;-78
2023/05/27 04:25:44;;;;;;;9.67;5.87;;;;;;;;;;5035404;28;20470;-78
2023/05/27 04:28:11;;;;;;;21.90;6.80;;;;;;;;;;5037042;28;20480;-78
2023/05/27 04:30:39;;;;;;;13.73;5.50;;;;;;;;;;5035569;28;20978;-78
2023/05/27 04:33:08;;;;;;;8.83;4.73;;;;;;;;;;5033697;28;21036;-78
2023/05/27 04:35:34;;;;;;;11.37;5.37;;;;;;;;;;5032770;28;20477;-78
2023/05/27 04:38:02;;;;;;;12.87;5.63;;;;;;;;;;5030866;28;20478;-78
2023/05/27 04:40:28;;;;;;;13.10;4.87;;;;;;;;;;5032598;28;20441;-78
2023/05/27 04:42:54;;;;;;;17.50;5.47;;;;;;;;;;5023424;28;20833;-78
2023/05/27 04:45:21;;;;;;;9.30;4.80;;;;;;;;;;5030401;28;20458;-78
2023/05/27 04:47:48;;;;;;;10.57;5.40;;;;;;;;;;5035362;28;20472;-79
2023/05/27 04:50:15;;;;;;;12.10;5.27;;;;;;;;;;5033628;28;20456;-78
2023/05/27 04:52:42;;;;;;;13.60;5.73;;;;;;;;;;5033110;28;20852;-78
2023/05/27 04:55:09;;;;;;;14.10;6.63;;;;;;;;;;5035476;28;20463;-78
2023/05/27 04:57:40;;;;;;;17.70;5.70;;;;;;;;;;5032520;28;20479;-78
2023/05/27 05:00:23;;;;;;;18.10;5.43;;;;;;;;;;5032007;28;20544;-78
2023/05/27 05:02:49;;;;;;;22.30;6.40;;;;;;;;;;5030648;28;20469;-78
2023/05/27 05:05:17;;;;;;;18.63;6.83;;;;;;;;;;5015577;28;20466;-78
2023/05/27 05:07:44;;;;;;;19.00;8.23;;;;;;;;;;5031640;28;20476;-78
2023/05/27 05:10:10;;;;;;;23.70;6.73;;;;;;;;;;5032128;28;20470;-78
2023/05/27 05:12:37;;;;;;;14.93;7.23;;;;;;;;;;5033460;28;20488;-79
2023/05/27 05:15:03;;;;;;;16.77;6.80;;;;;;;;;;5025607;28;20445;-78
2023/05/27 05:17:30;;;;;;;19.43;6.30;;;;;;;;;;5034584;28;20476;-78
2023/05/27 05:19:56;;;;;;;17.77;6.70;;;;;;;;;;5027977;28;20831;-78
2023/05/27 05:22:25;;;;;;;25.20;8.97;;;;;;;;;;5033376;28;20484;-78
2023/05/27 05:24:52;;;;;;;15.60;6.37;;;;;;;;;;5030001;28;20457;-78
2023/05/27 05:27:18;;;;;;;11.07;6.37;;;;;;;;;;5030755;28;21053;-79
2023/05/27 05:29:45;;;;;;;18.60;6.80;;;;;;;;;;5033660;28;20461;-78
2023/05/27 05:32:12;;;;;;;17.13;6.90;;;;;;;;;;5032704;28;20504;-80
2023/05/27 05:34:39;;;;;;;15.70;6.20;;;;;;;;;;5032845;28;20793;-78
2023/05/27 05:37:06;;;;;;;17.97;6.73;;;;;;;;;;5034086;28;20477;-80
2023/05/27 05:39:33;;;;;;;13.27;6.73;;;;;;;;;;5032843;28;20481;-78
2023/05/27 05:42:01;;;;;;;20.17;6.17;;;;;;;;;;5031597;28;20468;-80
2023/05/27 05:44:27;;;;;;;16.07;6.67;;;;;;;;;;4992703;28;20965;-80
2023/05/27 05:46:54;;;;;;;20.20;7.30;;;;;;;;;;5029206;28;20484;-80
2023/05/27 05:49:20;;;;;;;19.47;6.97;;;;;;;;;;5030523;28;20445;-79
2023/05/27 05:51:46;;;;;;;21.10;8.00;;;;;;;;;;5026858;28;20473;-80
2023/05/27 05:54:13;;;;;;;18.17;6.07;;;;;;;;;;5029993;28;20460;-80
2023/05/27 05:56:41;;;;;;;17.70;6.57;;;;;;;;;;5024792;28;20476;-80
2023/05/27 05:59:07;;;;;;;14.67;5.67;;;;;;;;;;5029191;28;20470;-79
2023/05/27 06:01:35;;;;;;;21.77;6.40;;;;;;;;;;5028483;28;20465;-80
2023/05/27 06:04:04;;;;;;;14.90;5.83;;;;;;;;;;5010504;28;20484;-79
2023/05/27 06:06:31;;;;;;;16.53;6.17;;;;;;;;;;5028426;28;20515;-79
2023/05/27 06:08:58;;;;;;;25.73;7.30;;;;;;;;;;5032240;28;21346;-80
2023/05/27 06:11:26;;;;;;;24.50;6.33;;;;;;;;;;5019374;28;20452;-79
2023/05/27 06:13:53;;;;;;;22.97;6.63;;;;;;;;;;5032050;28;20540;-79
2023/05/27 06:16:20;;;;;;;11.00;5.20;;;;;;;;;;5031795;28;20449;-80
2023/05/27 06:18:46;;;;;;;10.90;5.70;;;;;;;;;;5032610;28;20488;-79
2023/05/27 06:21:12;;;;;;;19.67;5.57;;;;;;;;;;5031920;28;20460;-80
2023/05/27 06:23:39;;;;;;;13.10;5.60;;;;;;;;;;5031019;28;20953;-80
2023/05/27 06:26:05;;;;;;;11.27;5.10;;;;;;;;;;5027864;28;20445;-80
2023/05/27 06:28:32;;;;;;;15.73;5.80;;;;;;;;;;5021150;28;20472;-80
2023/05/27 06:31:00;;;;;;;16.70;5.13;;;;;;;;;;5014549;28;20858;-80
2023/05/27 06:33:26;;;;;;;11.43;5.20;;;;;;;;;;5024410;28;20495;-80
2023/05/27 06:35:52;;;;;;;15.80;5.40;;;;;;;;;;5030449;28;20445;-80
2023/05/27 06:38:19;;;;;;;23.10;5.93;;;;;;;;;;5029493;28;20856;-78
2023/05/27 06:40:45;;;;;;;16.90;4.90;;;;;;;;;;5025454;28;20453;-80
2023/05/27 06:43:11;;;;;;;10.60;5.90;;;;;;;;;;5027658;28;20487;-79
2023/05/27 06:45:38;;;;;;;10.50;5.87;;;;;;;;;;5025300;28;20460;-79
2023/05/27 06:48:05;;;;;;;18.23;5.47;;;;;;;;;;5027766;28;20906;-79
2023/05/27 06:50:32;;;;;;;11.60;6.20;;;;;;;;;;5042074;28;20526;-79
2023/05/27 06:52:58;;;;;;;16.37;6.10;;;;;;;;;;5026977;28;20488;-80
2023/05/27 06:55:25;;;;;;;20.93;5.50;;;;;;;;;;5022334;28;20465;-79
2023/05/27 06:57:52;;;;;;;16.53;5.30;;;;;;;;;;5016873;28;20503;-80
2023/05/27 07:00:19;;;;;;;20.50;6.23;;;;;;;;;;5032400;28;20452;-79
2023/05/27 07:02:45;;;;;;;22.00;5.83;;;;;;;;;;5028823;28;20481;-80
2023/05/27 07:05:13;;;;;;;12.50;5.00;;;;;;;;;;5025521;28;20441;-78
2023/05/27 07:07:39;;;;;;;11.47;5.33;;;;;;;;;;5015398;28;20472;-80
2023/05/27 07:10:06;;;;;;;21.10;5.60;;;;;;;;;;5029261;28;20464;-78
2023/05/27 07:12:33;;;;;;;21.80;6.13;;;;;;;;;;5027754;28;21004;-78
2023/05/27 07:14:59;;;;;;;19.20;6.37;;;;;;;;;;5030870;28;20981;-78
2023/05/27 07:17:25;;;;;;;15.30;5.97;;;;;;;;;;5030054;28;20485;-78
2023/05/27 07:19:52;;;;;;;11.50;5.70;;;;;;;;;;5029662;28;20994;-80
2023/05/27 07:22:19;;;;;;;12.10;6.73;;;;;;;;;;5008728;28;20857;-77
2023/05/27 07:24:46;;;;;;;27.43;6.63;;;;;;;;;;5028398;28;20445;-80
2023/05/27 07:27:12;;;;;;;15.10;5.50;;;;;;;;;;5026856;28;20469;-80
2023/05/27 07:29:38;;;;;;;16.10;6.80;;;;;;;;;;5021629;28;20445;-80
2023/05/27 07:32:05;;;;;;;11.80;6.13;;;;;;;;;;5026590;28;21001;-80
2023/05/27 07:34:32;;;;;;;18.87;6.80;;;;;;;;;;5024096;28;20528;-78
2023/05/27 07:36:58;;;;;;;16.30;5.70;;;;;;;;;;5027031;28;20901;-78
2023/05/27 07:39:26;;;;;;;14.90;5.70;;;;;;;;;;5019980;28;20555;-78
2023/05/27 07:41:52;;;;;;;20.40;6.93;;;;;;;;;;5021102;28;20444;-78
2023/05/27 07:44:19;;;;;;;15.43;5.63;;;;;;;;;;5028452;28;20426;-78
2023/05/27 07:46:45;;;;;;;16.30;6.07;;;;;;;;;;5026116;28;20442;-78
2023/05/27 07:49:12;;;;;;;15.20;6.77;;;;;;;;;;5033640;28;20422;-78
2023/05/27 07:51:38;;;;;;;13.13;6.27;;;;;;;;;;5029945;28;20442;-78
2023/05/27 07:54:04;;;;;;;14.80;5.80;;;;;;;;;;5029325;28;20449;-78
2023/05/27 07:56:34;;;;;;;10.67;6.07;;;;;;;;;;5027426;28;20461;-80
2023/05/27 07:59:00;;;;;;;15.33;6.10;;;;;;;;;;5025843;28;20479;-78
2023/05/27 08:01:30;;;;;;;19.37;6.40;;;;;;;;;;5024329;28;20495;-78
2023/05/27 08:03:56;;;;;;;14.53;6.17;;;;;;;;;;5031012;28;20427;-77
2023/05/27 08:06:23;;;;;;;16.30;6.60;;;;;;;;;;5028895;28;20448;-78
2023/05/27 08:08:49;;;;;;;14.57;6.80;;;;;;;;;;5028433;28;20454;-79
2023/05/27 08:11:15;;;;;;;20.30;8.23;;;;;;;;;;5029074;28;20422;-81
2023/05/27 08:13:43;;;;;;;26.97;12.03;;;;;;;;;;5029818;28;20424;-78
2023/05/27 08:16:10;;;;;;;22.73;7.70;;;;;;;;;;5024887;28;20424;-78
2023/05/27 08:18:36;;;;;;;17.73;6.83;;;;;;;;;;5029391;28;20977;-77
2023/05/27 08:21:02;;;;;;;14.60;7.03;;;;;;;;;;5021331;28;20468;-77
2023/05/27 08:23:29;;;;;;;19.10;7.90;;;;;;;;;;5024154;28;20484;-78
2023/05/27 08:25:55;;;;;;;20.80;9.50;;;;;;;;;;5032410;28;20415;-79
2023/05/27 08:28:22;;;;;;;21.20;8.53;;;;;;;;;;5021424;28;20926;-77
2023/05/27 08:30:50;;;;;;;28.13;14.83;;;;;;;;;;5025591;28;20967;-80
2023/05/27 08:33:16;;;;;;;26.40;13.97;;;;;;;;;;5030903;28;20440;-77
2023/05/27 08:35:43;;;;;;;23.13;10.70;;;;;;;;;;5030430;28;20420;-77
2023/05/27 08:38:09;;;;;;;24.93;9.47;;;;;;;;;;5030671;28;20459;-77
2023/05/27 08:40:36;;;;;;;22.63;8.30;;;;;;;;;;5028441;28;20473;-79
2023/05/27 08:43:03;;;;;;;17.90;9.07;;;;;;;;;;5023033;28;20481;-79
2023/05/27 08:45:30;;;;;;;22.70;8.83;;;;;;;;;;5026227;28;20468;-78
2023/05/27 08:47:58;;;;;;;14.30;7.90;;;;;;;;;;5030601;28;20870;-77
2023/05/27 08:50:24;;;;;;;18.90;9.30;;;;;;;;;;5025135;28;20417;-80
2023/05/27 08:52:53;;;;;;;23.03;8.90;;;;;;;;;;5030960;28;20858;-80
2023/05/27 08:55:21;;;;;;;25.27;9.07;;;;;;;;;;5028350;28;20465;-78
2023/05/27 08:57:51;;;;;;;16.67;7.37;;;;;;;;;;5027903;28;20477;-78
2023/05/27 09:00:17;;;;;;;18.93;7.43;;;;;;;;;;5022947;28;20527;-80
2023/05/27 09:02:44;;;;;;;13.13;6.83;;;;;;;;;;5004558;28;20476;-79
2023/05/27 09:05:12;;;;;;;20.40;8.67;;;;;;;;;;5028924;28;20469;-78
2023/05/27 09:07:38;;;;;;;16.33;7.43;;;;;;;;;;5033993;28;20930;-77
2023/05/27 09:10:06;;;;;;;19.13;8.27;;;;;;;;;;5032534;28;20487;-79
2023/05/27 09:12:32;;;;;;;25.10;8.80;;;;;;;;;;5034077;28;20468;-79
2023/05/27 09:14:59;;;;;;;19.27;8.80;;;;;;;;;;5009761;28;20456;-77
2023/05/27 09:17:27;;;;;;;18.80;8.43;;;;;;;;;;5034970;28;20476;-80
2023/05/27 09:19:54;;;;;;;17.30;7.47;;;;;;;;;;5033871;28;21020;-79
2023/05/27 09:22:23;;;;;;;20.73;8.50;;;;;;;;;;5029827;28;21017;-79
2023/05/27 09:24:53;;;;;;;22.30;9.00;;;;;;;;;;5027381;28;20461;-79
2023/05/27 09:27:20;;;;;;;15.20;6.90;;;;;;;;;;5034431;28;20476;-78
2023/05/27 09:29:46;;;;;;;16.73;7.73;;;;;;;;;;5034889;28;20459;-79
2023/05/27 09:32:12;;;;;;;18.43;7.60;;;;;;;;;;5031944;28;20480;-79
2023/05/27 09:34:39;;;;;;;14.70;6.40;;;;;;;;;;5033235;28;20460;-79
2023/05/27 09:37:05;;;;;;;15.17;5.87;;;;;;;;;;5025973;28;20480;-79
2023/05/27 09:39:34;;;;;;;15.30;7.20;;;;;;;;;;5011668;28;20484;-79
2023/05/27 09:42:01;;;;;;;15.90;7.20;;;;;;;;;;5031521;28;20468;-79
2023/05/27 09:44:28;;;;;;;19.07;6.67;;;;;;;;;;5029780;28;20469;-79
2023/05/27 09:46:55;;;;;;;12.77;6.70;;;;;;;;;;5028352;28;20481;-79
2023/05/27 09:49:21;;;;;;;19.47;9.10;;;;;;;;;;5031017;28;20899;-79
2023/05/27 09:51:48;;;;;;;18.07;6.83;;;;;;;;;;5031900;28;20503;-79
2023/05/27 09:54:18;;;;;;;25.23;9.90;;;;;;;;;;5032533;28;20828;-79
2023/05/27 09:56:46;;;;;;;15.77;8.10;;;;;;;;;;5029232;28;20464;-79
2023/05/27 09:59:13;;;;;;;28.30;10.97;;;;;;;;;;5034737;28;20484;-79
2023/05/27 10:01:40;;;;;;;20.60;10.20;;;;;;;;;;5026689;28;20457;-79
2023/05/27 10:04:07;;;;;;;18.23;9.30;;;;;;;;;;5013381;28;20540;-79
2023/05/27 10:06:34;;;;;;;22.93;8.97;;;;;;;;;;5035233;28;21016;-79
2023/05/27 10:09:02;;;;;;;17.47;7.90;;;;;;;;;;5013299;28;20452;-79
2023/05/27 10:11:32;;;;;;;27.57;12.07;;;;;;;;;;5031757;28;20464;-79
2023/05/27 10:13:59;;;;;;;19.53;11.37;;;;;;;;;;5023391;28;20445;-79
2023/05/27 10:16:27;;;;;;;19.50;10.50;;;;;;;;;;5033146;28;20963;-80
2023/05/27 10:18:54;;;;;;;24.73;11.10;;;;;;;;;;5034060;28;20472;-78
2023/05/27 10:21:22;;;;;;;17.00;10.10;;;;;;;;;;5014687;28;20507;-79
2023/05/27 10:23:53;;;;;;;22.57;10.10;;;;;;;;;;5030741;28;20456;-79
2023/05/27 10:26:21;;;;;;;30.20;12.07;;;;;;;;;;5012229;28;20452;-79
2023/05/27 10:28:47;;;;;;;24.00;11.20;;;;;;;;;;5030895;28;20994;-79
2023/05/27 10:31:17;;;;;;;24.03;11.80;;;;;;;;;;5032150;28;20454;-79
2023/05/27 10:33:45;;;;;;;24.37;12.10;;;;;;;;;;5027476;28;20445;-79
2023/05/27 10:36:12;;;;;;;24.87;10.23;;;;;;;;;;5031965;28;20457;-79
2023/05/27 10:38:39;;;;;;;15.10;9.83;;;;;;;;;;5027242;28;20476;-79
2023/05/27 10:41:07;;;;;;;18.83;10.50;;;;;;;;;;5033241;28;20488;-77
2023/05/27 10:43:34;;;;;;;18.43;9.80;;;;;;;;;;5028701;28;20469;-80
2023/05/27 10:46:04;;;;;;;20.33;8.00;;;;;;;;;;5029148;28;20444;-78
2023/05/27 10:48:33;;;;;;;15.07;9.13;;;;;;;;;;5026904;28;20835;-78
2023/05/27 10:50:59;;;;;;;22.80;9.43;;;;;;;;;;5034116;28;20445;-78
2023/05/27 10:53:27;;;;;;;12.43;9.80;;;;;;;;;;5022812;28;20499;-78
2023/05/27 10:55:54;;;;;;;13.17;8.07;;;;;;;;;;5025384;28;20453;-78
2023/05/27 10:58:21;;;;;;;15.87;8.23;;;;;;;;;;5007354;28;20473;-78
2023/05/27 11:00:49;;;;;;;24.60;10.50;;;;;;;;;;5013105;28;20535;-78
2023/05/27 11:03:21;;;;;;;20.37;10.17;;;;;;;;;;5026476;28;20473;-77
2023/05/27 11:05:49;;;;;;;24.27;10.03;;;;;;;;;;5026003;28;20449;-78
2023/05/27 11:08:15;;;;;;;27.20;8.67;;;;;;;;;;5026331;28;20475;-78
2023/05/27 11:10:42;;;;;;;15.57;8.27;;;;;;;;;;5006742;28;20446;-77
2023/05/27 11:13:08;;;;;;;20.60;9.20;;;;;;;;;;5030153;28;20461;-78
2023/05/27 11:15:34;;;;;;;17.80;7.57;;;;;;;;;;5028379;28;20450;-78
2023/05/27 11:18:01;;;;;;;19.47;7.67;;;;;;;;;;5032693;28;20552;-78
2023/05/27 11:20:34;;;;;;;14.73;7.33;;;;;;;;;;5031165;28;20504;-78
2023/05/27 11:23:02;;;;;;;15.87;7.97;;;;;;;;;;5014678;28;20469;-78
2023/05/27 11:25:28;;;;;;;15.37;7.50;;;;;;;;;;5024057;28;20942;-78
2023/05/27 11:27:55;;;;;;;17.27;8.70;;;;;;;;;;5031427;28;21005;-78
2023/05/27 11:30:24;;;;;;;20.00;9.03;;;;;;;;;;5031234;28;20462;-78
2023/05/27 11:32:51;;;;;;;15.90;9.07;;;;;;;;;;5007433;28;20480;-78
2023/05/27 11:35:18;;;;;;;22.80;8.43;;;;;;;;;;5027665;28;20457;-78
2023/05/27 11:37:48;;;;;;;12.97;8.17;;;;;;;;;;5028333;28;20473;-77
2023/05/27 11:40:15;;;;;;;11.33;7.10;;;;;;;;;;5038570;28;20538;-77
2023/05/27 11:42:46;;;;;;;22.70;8.03;;;;;;;;;;5032213;28;20469;-78
2023/05/27 11:45:16;;;;;;;18.10;8.37;;;;;;;;;;5026818;28;20481;-77
2023/05/27 11:47:43;;;;;;;18.53;7.60;;;;;;;;;;5032024;28;20472;-77
2023/05/27 11:50:10;;;;;;;20.70;7.60;;;;;;;;;;5030340;28;20527;-78
2023/05/27 11:52:36;;;;;;;15.57;7.13;;;;;;;;;;5020142;28;20579;-78
2023/05/27 11:55:03;;;;;;;8.20;6.53;;;;;;;;;;5031103;28;20460;-78
2023/05/27 11:57:31;;;;;;;10.43;6.40;;;;;;;;;;5027366;28;20469;-77
2023/05/27 11:59:57;;;;;;;12.70;7.47;;;;;;;;;;5028912;28;20494;-79
2023/05/27 12:02:23;;;;;;;13.50;5.60;;;;;;;;;;5030371;28;20468;-78
2023/05/27 12:04:50;;;;;;;12.57;6.20;;;;;;;;;;5018984;28;20463;-80
2023/05/27 12:07:16;;;;;;;16.70;5.70;;;;;;;;;;5031911;28;20577;-79
2023/05/27 12:09:43;;;;;;;9.13;5.67;;;;;;;;;;5030135;28;20456;-79
2023/05/27 12:12:09;;;;;;;14.57;5.90;;;;;;;;;;5029790;28;20473;-79
2023/05/27 12:14:37;;;;;;;13.53;5.80;;;;;;;;;;5029213;28;20455;-79
2023/05/27 12:17:03;;;;;;;17.63;6.20;;;;;;;;;;5012314;28;20473;-79
2023/05/27 12:19:34;;;;;;;12.17;6.80;;;;;;;;;;5024336;28;20449;-79
2023/05/27 12:22:00;;;;;;;14.03;6.50;;;;;;;;;;5027881;28;20480;-79
2023/05/27 12:24:26;;;;;;;9.97;5.90;;;;;;;;;;5030110;28;20822;-77
2023/05/27 12:26:53;;;;;;;12.80;5.97;;;;;;;;;;5030775;28;20853;-79
2023/05/27 12:29:21;;;;;;;11.50;6.20;;;;;;;;;;5027331;28;20456;-79
2023/05/27 12:31:49;;;;;;;13.90;6.47;;;;;;;;;;5031752;28;20464;-79
2023/05/27 12:34:16;;;;;;;15.10;5.03;;;;;;;;;;5029308;28;20546;-79
2023/05/27 12:36:43;;;;;;;9.30;5.40;;;;;;;;;;5009182;28;20483;-79
2023/05/27 12:39:09;;;;;;;10.63;5.70;;;;;;;;;;5010993;28;21028;-79
2023/05/27 12:41:39;;;;;;;9.60;5.30;;;;;;;;;;5034699;28;20982;-79
2023/05/27 12:44:06;;;;;;;19.73;6.57;;;;;;;;;;5028162;28;20442;-79
2023/05/27 12:46:32;;;;;;;13.33;5.87;;;;;;;;;;5032274;28;20472;-79
2023/05/27 12:49:00;;;;;;;11.23;5.93;;;;;;;;;;5030497;28;20858;-78
2023/05/27 12:51:27;;;;;;;7.33;5.40;;;;;;;;;;5025333;28;20442;-79
2023/05/27 12:53:53;;;;;;;14.80;5.43;;;;;;;;;;5035504;28;20447;-79
2023/05/27 12:56:19;;;;;;;11.33;6.60;;;;;;;;;;5032121;28;20452;-79
2023/05/27 12:58:47;;;;;;;17.03;5.70;;;;;;;;;;5029843;28;20481;-79
2023/05/27 13:01:13;;;;;;;12.20;4.97;;;;;;;;;;5031931;28;20487;-79
2023/05/27 13:03:39;;;;;;;10.53;5.53;;;;;;;;;;5018542;28;20449;-79
2023/05/27 13:06:08;;;;;;;11.80;5.77;;;;;;;;;;5035320;28;20453;-79
2023/05/27 13:08:34;;;;;;;11.60;5.97;;;;;;;;;;5029737;28;20479;-79
2023/05/27 13:11:03;;;;;;;11.33;5.70;;;;;;;;;;5029186;28;20445;-79
2023/05/27 13:13:29;;;;;;;11.97;6.50;;;;;;;;;;5035122;28;20496;-79
2023/05/27 13:15:57;;;;;;;9.00;4.87;;;;;;;;;;5028684;28;20909;-79
2023/05/27 13:18:24;;;;;;;9.90;4.90;;;;;;;;;;5031421;28;20460;-78
2023/05/27 13:20:50;;;;;;;9.90;5.27;;;;;;;;;;5030781;28;20484;-79
2023/05/27 13:23:18;;;;;;;14.73;5.80;;;;;;;;;;5033472;28;20473;-79
2023/05/27 13:25:44;;;;;;;13.20;5.50;;;;;;;;;;5027993;28;20464;-79
2023/05/27 13:28:11;;;;;;;16.70;6.50;;;;;;;;;;5016023;28;21021;-79
2023/05/27 13:30:38;;;;;;;11.77;5.70;;;;;;;;;;5028634;28;20853;-79
2023/05/27 13:33:05;;;;;;;12.07;5.50;;;;;;;;;;5035062;28;20527;-78
2023/05/27 13:35:32;;;;;;;18.90;7.03;;;;;;;;;;5030913;28;20457;-78
2023/05/27 13:38:00;;;;;;;14.27;6.60;;;;;;;;;;5031262;28;21006;-79
2023/05/27 13:40:27;;;;;;;11.07;5.67;;;;;;;;;;5032100;28;20480;-79
2023/05/27 13:42:54;;;;;;;10.37;5.40;;;;;;;;;;5029421;28;20528;-79
2023/05/27 13:45:20;;;;;;;10.10;5.97;;;;;;;;;;5034225;28;20456;-79
2023/05/27 13:47:46;;;;;;;15.33;6.10;;;;;;;;;;5031021;28;20484;-79
2023/05/27 13:50:13;;;;;;;12.50;5.90;;;;;;;;;;5033749;28;20464;-79
2023/05/27 13:52:39;;;;;;;15.80;5.93;;;;;;;;;;5022220;28;20478;-79
2023/05/27 13:55:06;;;;;;;8.07;5.93;;;;;;;;;;5038258;28;20467;-79
2023/05/27 13:57:34;;;;;;;13.33;6.30;;;;;;;;;;5030504;28;20853;-79
2023/05/27 14:00:01;;;;;;;10.00;5.27;;;;;;;;;;5037892;28;20450;-79
2023/05/27 14:02:28;;;;;;;11.67;6.40;;;;;;;;;;5033759;28;20475;-79
2023/05/27 14:04:55;;;;;;;7.93;5.47;;;;;;;;;;5034556;28;20467;-79
2023/05/27 14:07:23;;;;;;;11.23;5.67;;;;;;;;;;5034133;28;20472;-79
2023/05/27 14:09:49;;;;;;;22.33;5.50;;;;;;;;;;5015051;28;20444;-79
2023/05/27 14:12:16;;;;;;;12.07;5.40;;;;;;;;;;5029254;28;20997;-79
2023/05/27 14:14:43;;;;;;;13.50;6.30;;;;;;;;;;5024217;28;20457;-79
2023/05/27 14:17:09;;;;;;;14.30;5.63;;;;;;;;;;5029222;28;20500;-79
2023/05/27 14:19:36;;;;;;;15.10;5.87;;;;;;;;;;5023608;28;20967;-79
2023/05/27 14:22:03;;;;;;;18.33;6.60;;;;;;;;;;5029053;28;20483;-79
2023/05/27 14:24:29;;;;;;;13.90;5.60;;;;;;;;;;5031095;28;20814;-79
2023/05/27 14:26:57;;;;;;;13.93;6.00;;;;;;;;;;5026911;28;20477;-78
2023/05/27 14:29:23;;;;;;;12.60;5.53;;;;;;;;;;5028266;28;20445;-79